Time;durP1;ratioP1;P1;durP2;ratioP2;P2;SDS_P1;SDS_P2;PMS_P1;PMS_P2;Temp;Humidity;BMP_temperature;BMP_pressure;BME280_temperature;BME280_humidity;BME280_pressure;Samples;Min_cycle;Max_cycle;Signal;HPM_P1;HPM_P2
2022/08/10 00:02:28;;;;;;;;;;;;;;;18.70;60.67;102439.53;4984886;28;20040;-81
2022/08/10 00:04:54;;;;;;;3.30;2.07;;;;;;;18.58;62.78;102430.31;4983279;28;20367;-80
2022/08/10 00:07:19;;;;;;;2.85;1.90;;;;;;;18.51;62.92;102435.19;4972759;28;20277;-81
2022/08/10 00:09:44;;;;;;;2.63;1.95;;;;;;;18.48;63.28;102435.41;4984697;28;20161;-81
2022/08/10 00:12:10;;;;;;;2.38;1.80;;;;;;;18.45;63.43;102442.78;4979250;28;20050;-81
2022/08/10 00:14:35;;;;;;;4.93;2.30;;;;;;;18.38;63.06;102429.66;4981074;28;20038;-81
2022/08/10 00:17:00;;;;;;;2.95;2.00;;;;;;;18.40;63.75;102440.38;4978053;28;20037;-81
2022/08/10 00:19:26;;;;;;;3.10;2.15;;;;;;;18.40;63.74;102434.97;4978164;28;20034;-82
2022/08/10 00:21:51;;;;;;;6.60;2.50;;;;;;;18.37;63.56;102440.53;4976578;28;20019;-81
2022/08/10 00:24:17;;;;;;;3.58;1.98;;;;;;;18.29;64.11;102432.03;4971996;28;20058;-82
2022/08/10 00:26:42;;;;;;;3.70;2.05;;;;;;;18.25;64.54;102436.72;4981919;28;20031;-82
2022/08/10 00:29:07;;;;;;;2.55;2.10;;;;;;;18.19;64.25;102428.16;4974553;28;20515;-81
2022/08/10 00:31:33;;;;;;;2.53;2.20;;;;;;;18.14;64.45;102426.59;4980613;28;20368;-81
2022/08/10 00:33:58;;;;;;;3.78;2.42;;;;;;;18.05;64.86;102423.53;4979880;28;20030;-82
2022/08/10 00:36:23;;;;;;;2.60;2.40;;;;;;;17.96;65.20;102415.97;4984285;28;20049;-82
2022/08/10 00:38:49;;;;;;;2.67;2.40;;;;;;;17.97;65.35;102420.41;4987226;28;20022;-81
2022/08/10 00:41:14;;;;;;;3.63;2.20;;;;;;;17.94;65.45;102428.69;4983338;28;20031;-82
2022/08/10 00:43:39;;;;;;;2.90;2.60;;;;;;;17.86;65.89;102410.25;4977425;28;20446;-81
2022/08/10 00:46:04;;;;;;;2.88;2.50;;;;;;;17.82;65.59;102411.38;4981686;28;20029;-82
2022/08/10 00:48:30;;;;;;;2.75;2.17;;;;;;;17.89;65.41;102418.13;4977196;28;20027;-81
2022/08/10 00:50:58;;;;;;;5.10;2.38;;;;;;;17.84;65.79;102415.72;4979281;28;20163;-82
2022/08/10 00:53:24;;;;;;;2.97;2.20;;;;;;;17.84;66.03;102417.53;4987761;28;20149;-82
2022/08/10 00:55:49;;;;;;;4.15;2.15;;;;;;;17.84;66.28;102418.41;4980218;28;20037;-82
2022/08/10 00:58:14;;;;;;;5.47;2.50;;;;;;;17.79;65.97;102416.94;4996373;28;20082;-82
2022/08/10 01:00:41;;;;;;;2.72;2.53;;;;;;;17.75;66.27;102410.84;4991571;28;20061;-82
2022/08/10 01:03:07;;;;;;;3.30;2.53;;;;;;;17.74;66.10;102410.91;4984037;28;20044;-80
2022/08/10 01:05:40;;;;;;;4.20;2.60;;;;;;;17.67;66.42;102415.75;4987100;28;20042;-82
2022/08/10 01:08:18;;;;;;;4.10;2.50;;;;;;;17.63;66.56;102411.50;4982816;28;20034;-82
2022/08/10 01:10:56;;;;;;;3.80;2.55;;;;;;;17.60;66.43;102414.38;4971852;28;20054;-82
2022/08/10 01:13:34;;;;;;;2.78;2.42;;;;;;;17.57;67.07;102409.16;4991863;28;20163;-82
2022/08/10 01:16:10;;;;;;;2.90;2.60;;;;;;;17.51;66.79;102410.34;4997403;28;20554;-82
2022/08/10 01:18:45;;;;;;;3.60;2.83;;;;;;;17.47;67.29;102406.09;4982494;28;20039;-82
2022/08/10 01:21:22;;;;;;;3.25;2.60;;;;;;;17.48;67.20;102398.91;4993367;28;20073;-82
2022/08/10 01:24:23;;;;;;;4.47;2.80;;;;;;;17.49;66.06;102392.56;4980582;28;20034;-82
2022/08/10 01:27:04;;;;;;;2.95;2.55;;;;;;;17.37;67.40;102391.41;4918096;29;20086;-82
2022/08/10 01:29:46;;;;;;;4.75;3.17;;;;;;;17.35;68.39;102398.72;4912346;29;20514;-81
2022/08/10 01:32:16;;;;;;;3.78;2.47;;;;;;;17.31;68.14;102403.41;4925893;29;20044;-82
2022/08/10 01:34:53;;;;;;;4.60;2.63;;;;;;;17.28;68.37;102395.47;4914453;29;20031;-81
2022/08/10 01:37:23;;;;;;;6.03;3.22;;;;;;;17.22;68.29;102395.78;4923948;29;20533;-82
2022/08/10 01:39:54;;;;;;;4.38;2.67;;;;;;;17.22;68.35;102395.78;4912529;29;20223;-82
2022/08/10 01:42:22;;;;;;;2.63;2.42;;;;;;;17.27;68.48;102404.50;4923221;29;20442;-82
2022/08/10 01:45:01;;;;;;;3.90;2.85;;;;;;;17.20;68.20;102395.03;4915215;29;20027;-82
2022/08/10 01:50:27;;;;;;;4.25;2.78;;;;;;;17.14;69.07;102398.06;4915971;29;20532;-82
2022/08/10 01:52:59;;;;;;;4.28;3.00;;;;;;;17.15;68.68;102397.97;4911744;29;20042;-82
2022/08/10 01:55:27;;;;;;;5.80;3.20;;;;;;;17.04;69.58;102394.97;4914955;29;20040;-82
2022/08/10 01:57:55;;;;;;;5.93;3.22;;;;;;;17.03;69.25;102395.94;4917701;29;20024;-82
2022/08/10 02:00:21;;;;;;;4.53;3.10;;;;;;;16.99;69.31;102396.19;4925169;29;20040;-81
2022/08/10 02:02:48;;;;;;;5.72;3.35;;;;;;;17.04;69.67;102399.50;4953516;28;20039;-82
2022/08/10 02:05:15;;;;;;;3.47;3.17;;;;;;;16.96;70.01;102394.50;4980307;28;20042;-82
2022/08/10 02:07:42;;;;;;;3.85;3.45;;;;;;;16.93;69.90;102403.63;4991159;28;20025;-82
2022/08/10 02:10:11;;;;;;;3.75;3.03;;;;;;;16.86;70.48;102401.34;4991764;28;20282;-82
2022/08/10 02:12:39;;;;;;;4.85;3.58;;;;;;;16.81;70.52;102408.78;4979078;28;20031;-81
2022/08/10 02:15:09;;;;;;;3.83;3.40;;;;;;;16.74;70.64;102397.47;4990739;28;20026;-82
2022/08/10 02:17:38;;;;;;;3.88;3.30;;;;;;;16.76;71.09;102398.28;4997030;28;20105;-82
2022/08/10 02:20:16;;;;;;;3.78;3.30;;;;;;;16.68;70.76;102392.41;4980904;28;20034;-82
2022/08/10 02:22:43;;;;;;;4.25;3.10;;;;;;;16.61;71.84;102391.81;4985931;28;20022;-82
2022/08/10 02:25:10;;;;;;;4.60;3.63;;;;;;;16.56;71.70;102396.56;4998500;28;20085;-82
2022/08/10 02:27:37;;;;;;;4.40;3.55;;;;;;;16.56;71.82;102403.78;4986599;28;20113;-82
2022/08/10 02:30:05;;;;;;;5.40;3.50;;;;;;;16.55;71.74;102388.56;4986900;28;20034;-82
2022/08/10 02:32:31;;;;;;;4.20;3.75;;;;;;;16.54;72.07;102408.34;4978825;28;20030;-82
2022/08/10 02:34:58;;;;;;;5.28;3.75;;;;;;;16.50;72.31;102402.25;4989231;28;20211;-82
2022/08/10 02:37:25;;;;;;;5.93;3.92;;;;;;;16.47;72.21;102399.75;4992959;28;20481;-82
2022/08/10 02:39:53;;;;;;;4.57;3.55;;;;;;;16.42;72.76;102394.56;4985727;28;20030;-82
2022/08/10 02:42:40;;;;;;;4.18;3.60;;;;;;;16.47;71.64;102390.78;4979539;28;20033;-82
2022/08/10 02:45:16;;;;;;;4.00;3.60;;;;;;;16.44;72.49;102399.88;4980936;28;20039;-81
2022/08/10 02:48:23;;;;;;;4.47;3.80;;;;;;;16.43;71.94;102400.84;4986381;28;20057;-82
2022/08/10 02:50:58;;;;;;;6.93;4.40;;;;;;;16.35;72.93;102394.97;4971273;28;20090;-82
2022/08/10 02:53:31;;;;;;;5.72;3.90;;;;;;;16.32;73.17;102389.75;4985348;28;20029;-82
2022/08/10 02:56:13;;;;;;;5.22;4.05;;;;;;;16.31;73.14;102393.41;4973169;28;20418;-82
2022/08/10 02:58:44;;;;;;;4.55;4.03;;;;;;;16.27;73.71;102386.44;4991539;28;20037;-82
2022/08/10 03:01:16;;;;;;;6.28;3.65;;;;;;;16.29;73.64;102390.78;4989889;28;20026;-82
2022/08/10 03:03:58;;;;;;;4.77;3.77;;;;;;;16.27;73.50;102376.56;4979448;28;20047;-82
2022/08/10 03:06:29;;;;;;;4.82;4.15;;;;;;;16.17;74.66;102369.88;4986395;28;20084;-82
2022/08/10 03:08:57;;;;;;;5.28;3.97;;;;;;;16.16;74.77;102365.47;4998164;28;20116;-81
2022/08/10 03:11:26;;;;;;;4.15;3.72;;;;;;;16.14;74.61;102362.88;4986469;28;20381;-80
2022/08/10 03:13:53;;;;;;;5.78;4.25;;;;;;;16.14;74.89;102370.94;4980883;28;20556;-81
2022/08/10 03:16:21;;;;;;;5.65;4.32;;;;;;;16.10;75.06;102360.41;4988646;28;20022;-81
2022/08/10 03:18:48;;;;;;;6.70;4.50;;;;;;;16.06;75.09;102358.84;4974627;28;20031;-81
2022/08/10 03:21:15;;;;;;;5.78;4.45;;;;;;;16.04;75.31;102368.78;4985988;28;20058;-81
2022/08/10 03:23:42;;;;;;;5.22;4.03;;;;;;;16.04;75.77;102374.13;4982871;28;20034;-81
2022/08/10 03:26:08;;;;;;;4.97;4.45;;;;;;;15.98;75.56;102363.72;4981276;28;20030;-82
2022/08/10 03:28:34;;;;;;;5.80;3.95;;;;;;;15.94;76.32;102368.38;4982084;28;20026;-81
2022/08/10 03:31:01;;;;;;;6.45;4.40;;;;;;;15.95;75.91;102364.72;4976796;28;20343;-81
2022/08/10 03:33:30;;;;;;;6.80;4.80;;;;;;;15.92;75.89;102372.91;4992663;28;20125;-82
2022/08/10 03:35:56;;;;;;;5.93;4.40;;;;;;;15.89;76.48;102370.41;4971452;28;20571;-82
2022/08/10 03:38:22;;;;;;;5.38;4.28;;;;;;;15.83;76.36;102360.81;4989354;28;20126;-81
2022/08/10 03:40:50;;;;;;;5.97;3.92;;;;;;;15.85;76.70;102372.38;4984386;28;20033;-81
2022/08/10 03:43:18;;;;;;;5.97;4.50;;;;;;;15.86;76.33;102368.72;4983617;28;20026;-82
2022/08/10 03:45:48;;;;;;;5.28;4.22;;;;;;;15.79;77.21;102369.97;4977855;28;20053;-81
2022/08/10 03:48:17;;;;;;;4.82;4.32;;;;;;;15.78;76.80;102368.25;4974442;28;20046;-81
2022/08/10 03:50:42;;;;;;;5.80;5.28;;;;;;;15.74;77.17;102363.09;4985036;28;20732;-81
2022/08/10 03:53:08;;;;;;;5.40;4.65;;;;;;;15.75;77.03;102372.88;4980209;28;20041;-81
2022/08/10 03:55:33;;;;;;;5.50;4.18;;;;;;;15.75;77.27;102378.25;4980965;28;20252;-80
2022/08/10 03:57:59;;;;;;;6.05;4.30;;;;;;;15.69;77.21;102371.38;4988168;28;20109;-81
2022/08/10 04:00:27;;;;;;;4.75;4.32;;;;;;;15.69;77.48;102379.44;4994936;28;20036;-80
2022/08/10 04:02:54;;;;;;;5.68;4.18;;;;;;;15.68;77.38;102375.00;4984240;28;20046;-81
2022/08/10 04:05:19;;;;;;;5.55;4.50;;;;;;;15.67;77.34;102373.25;4994139;28;20061;-82
2022/08/10 04:07:45;;;;;;;7.57;4.90;;;;;;;15.66;77.35;102372.38;4991727;28;20073;-81
2022/08/10 04:10:11;;;;;;;6.68;4.78;;;;;;;15.61;77.62;102373.53;4997009;28;20084;-80
2022/08/10 04:12:36;;;;;;;5.78;5.10;;;;;;;15.55;77.90;102379.16;4986855;28;20053;-81
2022/08/10 04:15:02;;;;;;;6.82;5.50;;;;;;;15.51;78.31;102375.78;4992788;28;20096;-81
2022/08/10 04:17:27;;;;;;;6.45;5.00;;;;;;;15.50;78.34;102378.50;4992869;28;20040;-81
2022/08/10 04:19:56;;;;;;;7.60;5.30;;;;;;;15.42;78.79;102374.41;4991805;28;20534;-81
2022/08/10 04:22:24;;;;;;;7.45;5.47;;;;;;;15.42;78.70;102376.19;4987434;28;20034;-81
2022/08/10 04:24:55;;;;;;;6.95;4.63;;;;;;;15.43;78.63;102376.13;4994380;28;20223;-81
2022/08/10 04:27:21;;;;;;;6.22;5.07;;;;;;;15.37;79.21;102370.16;4987405;28;20065;-81
2022/08/10 04:29:50;;;;;;;7.70;5.25;;;;;;;15.35;79.48;102375.63;4990638;28;20472;-81
2022/08/10 04:32:18;;;;;;;8.65;5.32;;;;;;;15.32;79.74;102370.38;4986407;28;20023;-81
2022/08/10 04:34:45;;;;;;;6.97;5.40;;;;;;;15.31;79.55;102373.16;4980398;28;20050;-80
2022/08/10 04:37:12;;;;;;;6.32;5.63;;;;;;;15.28;80.12;102375.97;4979346;28;20096;-82
2022/08/10 04:39:38;;;;;;;7.70;5.15;;;;;;;15.32;79.96;102380.25;4990042;28;20488;-82
2022/08/10 04:42:04;;;;;;;8.00;5.18;;;;;;;15.29;80.30;102380.38;4985184;28;20417;-81
2022/08/10 04:44:30;;;;;;;5.93;5.32;;;;;;;15.30;80.04;102377.66;4992144;28;20035;-82
2022/08/10 04:46:56;;;;;;;6.78;5.13;;;;;;;15.29;80.49;102370.53;4996020;28;20567;-82
2022/08/10 04:49:21;;;;;;;5.78;5.18;;;;;;;15.29;80.71;102375.88;4991307;28;20128;-81
2022/08/10 04:51:46;;;;;;;5.95;5.15;;;;;;;15.31;80.29;102379.38;4985191;28;20030;-81
2022/08/10 04:54:12;;;;;;;7.65;5.38;;;;;;;15.28;80.65;102366.09;4975850;28;20023;-79
2022/08/10 04:56:38;;;;;;;5.65;5.03;;;;;;;15.34;80.50;102367.63;4994117;28;20555;-80
2022/08/10 04:59:09;;;;;;;7.80;5.97;;;;;;;15.34;80.46;102381.94;4987282;28;20387;-81
2022/08/10 05:01:37;;;;;;;6.50;5.30;;;;;;;15.34;80.64;102363.16;4980304;28;20275;-81
2022/08/10 05:04:02;;;;;;;7.78;5.65;;;;;;;15.32;80.39;102362.34;4984247;28;20157;-81
2022/08/10 05:06:27;;;;;;;7.07;5.18;;;;;;;15.34;80.84;102372.97;4984316;28;20110;-82
2022/08/10 05:08:53;;;;;;;7.45;5.53;;;;;;;15.30;81.11;102374.06;4983224;28;20026;-82
2022/08/10 05:11:18;;;;;;;6.15;5.55;;;;;;;15.30;80.92;102358.88;4991000;28;20095;-82
2022/08/10 05:13:44;;;;;;;10.15;5.50;;;;;;;15.33;81.30;102369.44;4983580;28;20035;-81
2022/08/10 05:16:09;;;;;;;7.30;5.60;;;;;;;15.34;81.21;102373.88;4988017;28;20444;-81
2022/08/10 05:18:34;;;;;;;6.20;5.30;;;;;;;15.40;81.13;102367.34;4978025;28;20472;-81
2022/08/10 05:21:00;;;;;;;5.78;5.18;;;;;;;15.40;81.22;102365.53;4995912;28;20124;-82
2022/08/10 05:23:25;;;;;;;7.05;5.63;;;;;;;15.45;80.96;102365.31;4986769;28;20045;-82
2022/08/10 05:25:50;;;;;;;7.88;6.22;;;;;;;15.50;80.73;102363.28;4974771;28;20030;-80
2022/08/10 05:28:15;;;;;;;9.95;5.63;;;;;;;15.57;80.72;102374.59;4988712;28;20365;-81
2022/08/10 05:30:41;;;;;;;7.18;5.68;;;;;;;15.65;80.29;102370.66;4992145;28;20333;-80
2022/08/10 05:33:07;;;;;;;9.18;6.15;;;;;;;15.77;80.18;102371.00;4983925;28;20077;-82
2022/08/10 05:35:33;;;;;;;6.60;5.63;;;;;;;15.80;79.81;102371.72;4984083;28;20062;-82
2022/08/10 05:37:59;;;;;;;8.50;5.43;;;;;;;15.95;79.91;102375.47;4978992;28;20244;-82
2022/08/10 05:40:27;;;;;;;6.30;5.70;;;;;;;16.00;79.17;102378.78;4984325;28;20019;-81
2022/08/10 05:42:52;;;;;;;8.10;5.65;;;;;;;16.10;78.79;102379.22;4980636;28;20503;-82
2022/08/10 05:45:21;;;;;;;7.15;5.43;;;;;;;16.14;78.85;102379.00;4986963;28;20034;-82
2022/08/10 05:47:47;;;;;;;7.25;5.80;;;;;;;16.25;78.03;102373.06;4991028;28;20033;-81
2022/08/10 05:50:17;;;;;;;5.95;5.43;;;;;;;16.43;78.01;102380.22;4982091;28;20113;-82
2022/08/10 05:52:43;;;;;;;7.15;5.40;;;;;;;16.59;77.17;102382.09;4985940;28;20030;-79
2022/08/10 05:55:09;;;;;;;7.53;5.57;;;;;;;16.70;76.42;102385.09;4985800;28;20656;-80
2022/08/10 05:57:35;;;;;;;6.75;5.85;;;;;;;16.83;76.21;102390.72;4990544;28;20037;-81
2022/08/10 06:00:05;;;;;;;7.18;6.03;;;;;;;16.95;75.67;102384.72;4991825;28;20043;-82
2022/08/10 06:02:35;;;;;;;7.38;5.65;;;;;;;17.23;75.21;102385.94;4983245;28;20222;-81
2022/08/10 06:05:07;;;;;;;7.70;5.75;;;;;;;17.38;74.10;102390.44;4974258;28;20050;-81
2022/08/10 06:07:35;;;;;;;9.20;5.90;;;;;;;17.55;73.86;102389.53;4992525;28;20037;-81
2022/08/10 06:10:01;;;;;;;6.07;5.32;;;;;;;17.64;72.80;102395.28;4995276;28;20082;-81
2022/08/10 06:12:29;;;;;;;8.43;5.90;;;;;;;17.76;72.64;102391.03;4981944;28;20469;-79
2022/08/10 06:14:59;;;;;;;6.18;5.57;;;;;;;17.82;72.14;102388.00;4981555;28;20049;-81
2022/08/10 06:17:25;;;;;;;6.60;5.68;;;;;;;17.79;71.33;102393.56;4973736;28;20027;-80
2022/08/10 06:19:51;;;;;;;6.00;5.38;;;;;;;17.95;71.75;102393.56;4984591;28;20030;-81
2022/08/10 06:22:17;;;;;;;6.50;5.32;;;;;;;18.11;70.54;102396.25;4981027;28;20057;-81
2022/08/10 06:24:44;;;;;;;7.55;5.57;;;;;;;18.17;70.31;102388.66;4988552;28;20038;-82
2022/08/10 06:27:09;;;;;;;6.85;5.22;;;;;;;18.31;70.03;102392.38;4980327;28;20066;-82
2022/08/10 06:29:39;;;;;;;7.47;5.43;;;;;;;18.49;69.75;102393.13;4977827;28;20799;-82
2022/08/10 06:32:07;;;;;;;7.93;5.65;;;;;;;18.79;68.37;102385.91;4980357;28;20370;-81
2022/08/10 06:34:48;;;;;;;5.68;5.07;;;;;;;18.97;68.10;102385.72;4976382;28;20579;-81
2022/08/10 06:37:16;;;;;;;7.45;5.72;;;;;;;18.99;66.66;102391.91;4998091;28;20032;-80
2022/08/10 06:39:43;;;;;;;8.73;5.55;;;;;;;19.06;67.18;102387.84;4985289;28;20375;-81
2022/08/10 06:42:18;;;;;;;6.65;5.60;;;;;;;19.23;66.07;102385.00;4978226;28;20061;-81
2022/08/10 06:44:57;;;;;;;6.90;5.55;;;;;;;19.30;66.06;102383.63;4978516;28;20093;-81
2022/08/10 06:47:28;;;;;;;7.68;6.30;;;;;;;19.34;65.32;102382.47;4975105;28;20030;-81
2022/08/10 06:49:57;;;;;;;6.18;5.35;;;;;;;19.60;65.47;102379.91;4988302;28;20053;-81
2022/08/10 06:52:23;;;;;;;9.85;5.38;;;;;;;19.81;64.83;102377.69;4980653;28;20136;-81
2022/08/10 06:54:52;;;;;;;6.80;5.47;;;;;;;19.99;64.22;102391.84;4980633;28;20058;-81
2022/08/10 06:57:23;;;;;;;8.13;5.97;;;;;;;20.02;63.58;102386.22;4985889;28;20041;-82
2022/08/10 06:59:51;;;;;;;6.43;5.25;;;;;;;20.18;63.23;102391.47;4997466;28;20544;-82
2022/08/10 07:02:26;;;;;;;8.75;5.45;;;;;;;20.38;62.80;102389.16;4978303;28;20034;-81
2022/08/10 07:05:00;;;;;;;5.88;5.28;;;;;;;20.66;62.39;102395.44;4978382;28;20864;-82
2022/08/10 07:07:28;;;;;;;5.97;4.97;;;;;;;20.80;60.50;102391.75;4999677;28;20070;-81
2022/08/10 07:09:55;;;;;;;6.07;4.90;;;;;;;20.81;59.54;102388.94;4984118;28;20042;-82
2022/08/10 07:12:24;;;;;;;5.97;5.00;;;;;;;21.07;60.14;102388.97;4985262;28;20038;-82
2022/08/10 07:14:52;;;;;;;6.28;4.57;;;;;;;21.32;58.93;102397.09;4978465;28;20287;-82
2022/08/10 07:17:24;;;;;;;5.93;4.90;;;;;;;21.70;58.69;102396.16;4988806;28;20478;-81
2022/08/10 07:19:53;;;;;;;6.70;4.50;;;;;;;21.97;57.24;102392.38;4982868;28;20034;-82
2022/08/10 07:22:21;;;;;;;5.80;4.47;;;;;;;22.27;56.64;102398.22;4986155;28;20033;-82
2022/08/10 07:24:49;;;;;;;7.38;4.45;;;;;;;22.68;55.99;102396.91;4980581;28;20033;-82
2022/08/10 07:27:16;;;;;;;8.77;4.88;;;;;;;22.95;55.00;102407.50;4982732;28;20030;-82
2022/08/10 07:29:43;;;;;;;7.80;5.10;;;;;;;23.06;54.13;102395.78;4983420;28;20605;-82
2022/08/10 07:32:11;;;;;;;7.55;4.13;;;;;;;23.46;52.89;102396.16;4975871;28;20027;-82
2022/08/10 07:34:38;;;;;;;7.55;4.65;;;;;;;23.88;51.43;102400.97;4983328;28;20046;-81
2022/08/10 07:37:06;;;;;;;5.00;4.50;;;;;;;24.21;50.88;102405.44;4987363;28;20039;-82
2022/08/10 07:39:36;;;;;;;5.50;4.30;;;;;;;24.57;49.68;102396.00;4997315;28;20030;-82
2022/08/10 07:42:04;;;;;;;5.03;4.43;;;;;;;24.92;48.28;102403.88;4985057;28;20145;-82
2022/08/10 07:44:31;;;;;;;5.65;4.03;;;;;;;24.98;47.12;102403.31;4985063;28;20034;-83
2022/08/10 07:47:00;;;;;;;5.45;3.75;;;;;;;25.14;46.54;102405.59;5004436;28;20034;-82
2022/08/10 07:49:33;;;;;;;4.88;3.90;;;;;;;25.40;45.74;102400.53;4998337;28;20027;-82
2022/08/10 07:51:59;;;;;;;4.13;3.63;;;;;;;25.86;45.25;102396.41;4998952;28;20034;-81
2022/08/10 07:54:27;;;;;;;4.43;3.58;;;;;;;26.36;44.61;102400.91;5012223;28;20595;-81
2022/08/10 07:57:00;;;;;;;5.05;3.75;;;;;;;26.66;44.23;102397.19;4997402;28;20057;-81
2022/08/10 07:59:36;;;;;;;5.85;4.18;;;;;;;26.71;43.35;102408.53;4989411;28;20064;-78
2022/08/10 08:02:03;;;;;;;4.22;3.70;;;;;;;26.83;42.64;102404.63;4985640;28;20026;-77
2022/08/10 08:04:30;;;;;;;4.40;3.72;;;;;;;26.98;41.95;102405.03;4989097;28;20496;-81
2022/08/10 08:06:58;;;;;;;3.90;3.38;;;;;;;27.39;41.53;102402.94;4973814;28;20494;-81
2022/08/10 08:09:25;;;;;;;4.90;3.65;;;;;;;27.90;40.66;102407.00;4989404;28;20042;-82
2022/08/10 08:11:53;;;;;;;6.95;3.75;;;;;;;28.37;39.47;102415.03;4979931;28;20026;-81
2022/08/10 08:14:20;;;;;;;8.63;3.53;;;;;;;28.54;39.06;102401.31;4989143;28;20030;-82
2022/08/10 08:16:49;;;;;;;5.05;3.78;;;;;;;29.17;37.54;102415.84;4978062;28;20113;-82
2022/08/10 08:19:16;;;;;;;6.80;3.67;;;;;;;29.66;36.94;102410.63;4976839;28;20030;-81
2022/08/10 08:21:42;;;;;;;6.30;3.53;;;;;;;29.95;35.59;102408.31;4977310;28;20557;-82
2022/08/10 08:24:09;;;;;;;3.83;3.42;;;;;;;30.29;36.01;102409.28;4971989;28;20113;-81
2022/08/10 08:26:37;;;;;;;5.07;3.58;;;;;;;30.61;34.10;102413.94;4975087;28;20038;-81
2022/08/10 08:29:03;;;;;;;4.30;3.88;;;;;;;30.57;33.76;102407.91;4982472;28;20030;-82
2022/08/10 08:31:29;;;;;;;4.97;3.45;;;;;;;30.48;34.36;102408.94;4982104;28;20109;-81
2022/08/10 08:33:56;;;;;;;4.63;3.95;;;;;;;30.78;34.45;102406.56;4986651;28;20603;-81
2022/08/10 08:36:23;;;;;;;5.35;4.10;;;;;;;31.01;33.33;102402.03;4977534;28;20082;-81
2022/08/10 08:38:49;;;;;;;6.32;3.42;;;;;;;31.14;32.39;102404.25;4978983;28;20089;-82
2022/08/10 08:41:51;;;;;;;3.38;3.08;;;;;;;31.83;33.69;102404.50;4979227;28;20508;-81
2022/08/10 08:44:53;;;;;;;6.82;3.67;;;;;;;32.29;32.48;102404.59;4976690;28;20380;-82
2022/08/10 08:47:42;;;;;;;4.53;3.40;;;;;;;32.64;31.62;102409.47;4978845;28;20504;-82
2022/08/10 08:50:29;;;;;;;4.68;3.45;;;;;;;32.57;29.76;102405.78;4978556;28;20069;-79
2022/08/10 08:53:32;;;;;;;7.00;3.40;;;;;;;33.17;31.03;102407.59;4975556;28;20054;-81
2022/08/10 08:56:15;;;;;;;5.38;3.33;;;;;;;33.16;30.32;102410.56;4985520;28;20033;-80
2022/08/10 08:58:40;;;;;;;;;;;;;;;33.87;28.54;102410.88;4990348;28;20108;-82
2022/08/10 09:01:47;;;;;;;3.90;3.20;;;;;;;33.93;29.52;102408.19;4979837;28;19926;-82
2022/08/10 09:04:52;;;;;;;6.22;3.20;;;;;;;34.50;27.90;102402.88;4982311;28;20495;-81
2022/08/10 09:07:55;;;;;;;4.57;3.22;;;;;;;34.46;27.23;102402.38;4989676;28;20057;-79
2022/08/10 09:10:35;;;;;;;4.82;3.03;;;;;;;34.57;27.30;102398.22;4978784;28;20122;-80
2022/08/10 09:13:12;;;;;;;3.92;3.05;;;;;;;35.07;27.33;102402.69;4981019;28;20451;-81
2022/08/10 09:15:55;;;;;;;9.63;7.53;;;;;;;35.67;26.46;102401.13;4988672;28;20450;-80
2022/08/10 09:18:32;;;;;;;4.10;3.80;;;;;;;36.24;25.32;102392.53;4989116;28;20039;-81
2022/08/10 09:21:08;;;;;;;4.47;3.20;;;;;;;36.56;25.29;102394.50;4985482;28;20081;-80
2022/08/10 09:23:44;;;;;;;3.33;2.90;;;;;;;37.06;24.16;102392.13;4989547;28;20041;-81
2022/08/10 09:26:22;;;;;;;3.38;2.88;;;;;;;36.68;23.85;102393.88;4978636;28;20030;-80
2022/08/10 09:28:51;;;;;;;3.08;2.75;;;;;;;37.00;24.29;102393.03;4979135;28;20034;-80
2022/08/10 09:31:21;;;;;;;4.85;2.90;;;;;;;37.59;22.84;102385.59;4984456;28;20038;-81
2022/08/10 09:34:25;;;;;;;4.40;2.90;;;;;;;37.92;21.94;102384.56;4979646;28;20105;-81
2022/08/10 09:37:02;;;;;;;3.83;3.22;;;;;;;38.25;21.81;102375.97;4984005;28;20037;-81
2022/08/10 09:39:57;;;;;;;3.63;3.00;;;;;;;38.34;22.91;102377.47;4980312;28;20476;-81
2022/08/10 09:43:02;;;;;;;5.82;3.08;;;;;;;38.80;22.99;102373.44;4989142;28;20046;-81
2022/08/10 09:45:41;;;;;;;5.25;3.40;;;;;;;39.39;22.27;102373.88;4982830;28;20034;-80
2022/08/10 09:48:25;;;;;;;3.22;2.95;;;;;;;39.92;20.89;102364.78;4973826;28;20027;-81
2022/08/10 09:51:05;;;;;;;5.93;3.28;;;;;;;40.51;20.31;102365.75;4981129;28;20030;-81
2022/08/10 09:53:56;;;;;;;7.43;3.20;;;;;;;40.08;21.08;102367.72;4976685;28;20090;-81
2022/08/10 09:56:31;;;;;;;2.97;2.65;;;;;;;39.44;20.16;102366.50;4977214;28;20023;-81
2022/08/10 09:59:24;;;;;;;6.03;3.20;;;;;;;39.84;20.42;102364.03;4983896;28;20352;-81
2022/08/10 10:01:58;;;;;;;4.13;3.13;;;;;;;38.98;21.23;102364.25;4979947;28;20477;-81
2022/08/10 10:04:46;;;;;;;5.90;2.72;;;;;;;39.52;21.11;102368.97;4978185;28;20054;-81
2022/08/10 10:07:18;;;;;;;6.13;2.58;;;;;;;40.05;19.54;102361.81;4978194;28;20074;-79
2022/08/10 10:10:02;;;;;;;5.30;2.95;;;;;;;40.68;19.96;102355.63;4989030;28;20065;-82
2022/08/10 10:12:39;;;;;;;4.93;2.70;;;;;;;40.55;18.38;102353.94;4983778;28;20106;-81
2022/08/10 10:15:21;;;;;;;5.15;2.70;;;;;;;40.11;19.81;102357.22;4975586;28;20039;-81
2022/08/10 10:18:01;;;;;;;3.85;2.78;;;;;;;40.09;20.15;102358.31;4989301;28;20027;-81
2022/08/10 10:20:48;;;;;;;3.55;3.20;;;;;;;40.26;20.26;102341.75;4985091;28;20026;-81
2022/08/10 10:23:38;;;;;;;4.53;2.80;;;;;;;41.16;19.01;102340.50;4985863;28;20113;-80
2022/08/10 10:26:17;;;;;;;4.93;2.50;;;;;;;41.36;18.81;102342.03;4978249;28;20120;-80
2022/08/10 10:28:54;;;;;;;3.28;2.75;;;;;;;41.06;17.78;102341.16;4986929;28;20031;-79
2022/08/10 10:31:32;;;;;;;4.88;2.70;;;;;;;40.52;18.43;102328.41;4979249;28;20097;-81
2022/08/10 10:34:10;;;;;;;4.30;2.60;;;;;;;40.98;18.64;102338.75;4972483;28;20444;-80
2022/08/10 10:36:38;;;;;;;4.03;2.50;;;;;;;41.30;17.95;102330.78;4988383;28;20124;-79
2022/08/10 10:39:05;;;;;;;4.25;2.83;;;;;;;41.40;16.81;102341.31;4973319;28;20265;-81
2022/08/10 10:41:53;;;;;;;5.35;2.97;;;;;;;42.00;17.68;102335.19;4980680;28;20023;-80
2022/08/10 10:44:50;;;;;;;4.57;2.97;;;;;;;41.95;17.41;102323.94;4976986;28;20027;-82
2022/08/10 10:47:27;;;;;;;4.68;2.58;;;;;;;41.96;15.85;102325.63;4940980;28;20038;-81
2022/08/10 10:50:01;;;;;;;3.00;2.30;;;;;;;41.51;16.46;102328.38;4975971;28;20038;-80
2022/08/10 10:52:52;;;;;;;3.97;2.63;;;;;;;41.59;15.89;102322.41;4976122;28;20027;-80
2022/08/10 10:55:36;;;;;;;5.43;2.90;;;;;;;42.08;16.85;102308.75;4985757;28;20034;-81
2022/08/10 10:58:14;;;;;;;3.72;2.58;;;;;;;41.95;16.70;102309.94;4987421;28;20030;-81
2022/08/10 11:01:18;;;;;;;5.47;2.67;;;;;;;42.59;14.94;102311.53;4987224;28;20455;-81
2022/08/10 11:03:46;;;;;;;3.80;2.67;;;;;;;42.51;15.44;102302.47;4940442;28;20051;-81
2022/08/10 11:06:20;;;;;;;4.63;2.60;;;;;;;42.90;15.16;102296.91;4971453;28;20035;-81
2022/08/10 11:08:51;;;;;;;5.57;2.55;;;;;;;42.31;15.26;102293.78;4977371;28;20086;-80
2022/08/10 11:11:23;;;;;;;4.40;2.93;;;;;;;41.95;15.97;102295.97;4985467;28;20045;-79
2022/08/10 11:14:27;;;;;;;4.35;2.88;;;;;;;42.67;15.41;102297.13;4975282;28;20376;-80
2022/08/10 11:16:59;;;;;;;4.22;2.53;;;;;;;42.98;14.32;102302.03;4982779;28;20023;-80
2022/08/10 11:20:01;;;;;;;3.90;2.43;;;;;;;43.44;14.99;102291.41;4981392;28;20022;-82
2022/08/10 11:22:58;;;;;;;4.88;2.60;;;;;;;44.41;13.87;102286.69;4976079;28;20309;-81
2022/08/10 11:26:13;;;;;;;5.10;2.55;;;;;;;44.05;14.71;102284.69;4979210;28;20371;-81
2022/08/10 11:28:56;;;;;;;3.60;2.70;;;;;;;43.64;14.39;102278.72;4974703;28;20143;-82
2022/08/10 11:31:45;;;;;;;4.45;2.83;;;;;;;43.76;14.60;102280.22;4981537;28;20026;-82
2022/08/10 11:34:21;;;;;;;3.97;2.63;;;;;;;43.66;13.79;102271.72;4997899;28;20102;-82
2022/08/10 11:37:18;;;;;;;2.90;2.70;;;;;;;42.86;14.40;102280.88;4997198;28;20073;-82
2022/08/10 11:39:54;;;;;;;5.43;3.05;;;;;;;42.77;14.25;102289.72;4947137;29;20066;-80
2022/08/10 11:42:33;;;;;;;4.45;2.72;;;;;;;42.84;14.26;102281.13;4946272;29;20453;-82
2022/08/10 11:45:12;;;;;;;3.47;2.83;;;;;;;43.80;13.54;102280.53;4944495;29;20051;-80
2022/08/10 11:47:53;;;;;;;3.75;2.97;;;;;;;44.15;14.02;102271.59;4939445;29;20039;-81
2022/08/10 11:50:32;;;;;;;6.20;2.70;;;;;;;44.47;13.88;102268.72;4928565;29;20504;-79
2022/08/10 11:53:23;;;;;;;4.00;2.55;;;;;;;44.86;13.08;102268.41;4944761;29;20171;-80
2022/08/10 11:55:54;;;;;;;5.18;2.80;;;;;;;44.05;13.18;102265.91;4943544;29;20062;-80